createdAt,value
2019-04-05T09:50:02.250Z,0.0000
2019-04-05T09:50:05.045Z,6.8511
2019-04-05T09:50:07.812Z,6.7619
2019-04-05T09:50:10.599Z,6.7667
2019-04-05T09:50:13.382Z,6.5881
2019-04-05T09:50:16.188Z,6.2192
2019-04-05T09:50:18.982Z,6.0753
2019-04-05T09:50:21.870Z,6.2799
2019-04-05T09:50:24.758Z,6.6341
2019-04-05T09:50:27.557Z,6.5436
2019-04-05T09:50:30.338Z,6.4060
2019-04-05T09:50:33.112Z,5.9590
2019-04-05T09:50:35.947Z,5.7420
2019-04-05T09:50:38.771Z,5.3707
2019-04-05T09:52:07.141Z,0.0000
2019-04-05T09:52:09.362Z,5.3289
2019-04-05T09:52:11.338Z,5.4450
2019-04-05T09:52:13.332Z,5.4211
2019-04-05T09:52:15.348Z,5.2634
2019-04-05T09:52:17.342Z,5.0670
2019-04-05T09:52:19.474Z,5.1419
2019-04-05T09:52:22.402Z,5.1991
2019-04-05T09:52:24.369Z,5.1298
2019-04-05T09:52:26.366Z,5.2093
2019-04-05T09:52:28.370Z,5.1705
2019-04-05T09:52:31.360Z,5.2486
2019-04-05T09:52:33.398Z,5.8217
2019-04-05T09:52:35.357Z,5.8974
2019-04-05T09:52:39.975Z,6.5709
2019-04-05T09:52:41.333Z,7.2868
2019-04-05T09:52:44.349Z,7.3556
2019-04-05T09:52:46.353Z,7.4602
2019-04-05T09:52:48.340Z,7.5089
2019-04-05T09:52:50.354Z,7.5068
2019-04-05T09:52:52.566Z,7.3852
2019-04-05T09:52:55.372Z,8.3327
2019-04-05T09:52:57.383Z,7.8668
2019-04-05T09:52:59.372Z,7.7219
2019-04-05T09:53:02.478Z,7.6361
2019-04-05T09:53:04.343Z,7.5498
2019-04-05T09:53:06.330Z,7.6869
2019-04-05T09:53:08.341Z,7.7626
2019-04-05T09:53:09.391Z,7.9748
2019-04-05T09:53:13.344Z,8.0137
2019-04-05T09:53:15.359Z,7.8667
2019-04-05T09:53:17.373Z,7.8935
2019-04-05T09:53:19.622Z,7.8214
2019-04-05T09:53:22.353Z,7.7330
2019-04-05T09:53:24.387Z,7.5664
2019-04-05T09:53:25.359Z,7.6667
2019-04-05T09:53:28.348Z,7.6843
2019-04-05T09:53:30.362Z,7.2950
2019-04-05T09:53:33.358Z,6.9149
2019-04-05T09:53:35.339Z,6.5177
2019-04-05T09:53:37.357Z,6.4865
2019-04-05T09:53:39.332Z,6.3086
2019-04-05T09:53:41.352Z,6.2708
2019-04-05T09:53:44.363Z,6.4599
2019-04-05T09:53:46.349Z,6.9360
2019-04-05T09:53:48.349Z,7.2279
2019-04-05T09:53:50.362Z,7.3108
2019-04-05T09:53:53.338Z,7.3655
2019-04-05T09:53:55.135Z,7.1175
2019-04-05T09:53:57.398Z,7.1944
2019-04-05T09:53:59.355Z,8.0253
2019-04-05T09:54:01.343Z,8.0388
2019-04-05T09:54:04.348Z,7.3901
2019-04-05T09:54:06.379Z,7.3702
2019-04-05T09:54:08.379Z,7.4486
2019-04-05T09:54:10.358Z,7.5213
2019-04-05T09:54:12.392Z,7.5983
2019-04-05T09:54:15.369Z,7.7088
2019-04-05T09:54:17.352Z,7.7277
2019-04-05T09:54:19.352Z,7.8826
2019-04-05T09:54:21.345Z,8.0773
2019-04-05T09:54:24.338Z,8.1506
2019-04-05T09:54:26.352Z,8.1803
2019-04-05T09:54:28.420Z,8.2554
2019-04-05T09:54:30.369Z,8.1466
2019-04-05T09:54:32.352Z,7.8348
2019-04-05T09:54:35.384Z,7.6912
2019-04-05T09:54:36.352Z,7.3451
2019-04-05T09:54:39.366Z,7.2324
2019-04-05T09:54:41.389Z,6.8162
2019-04-05T09:54:43.403Z,6.4664
2019-04-05T09:54:46.394Z,6.0468
2019-04-05T09:54:48.438Z,5.3894
2019-04-05T09:54:50.364Z,4.9214
2019-04-05T09:54:52.371Z,4.5868
2019-04-05T09:54:55.355Z,4.9002
2019-04-05T09:54:57.349Z,5.2296
2019-04-05T09:54:59.364Z,5.3788
2019-04-05T09:55:01.373Z,5.7960
2019-04-05T09:55:03.363Z,6.0976
2019-04-05T09:55:06.340Z,6.4299
2019-04-05T09:55:08.378Z,7.0167
2019-04-05T09:55:10.339Z,7.2335
2019-04-05T09:55:12.344Z,7.3619
2019-04-05T09:55:14.374Z,7.4818
2019-04-05T09:55:17.368Z,7.7109
2019-04-05T09:55:19.362Z,7.8957
2019-04-05T09:55:21.368Z,7.8687
2019-04-05T09:55:23.355Z,8.2574
2019-04-05T09:55:26.348Z,8.2826
2019-04-05T09:55:28.375Z,8.2039
2019-04-05T09:55:30.368Z,8.0670
2019-04-05T09:55:32.357Z,7.8028
2019-04-05T09:55:34.359Z,7.5516
2019-04-05T09:55:37.352Z,7.5443
2019-04-05T09:55:39.389Z,7.1731
2019-04-05T09:55:41.376Z,6.8254
2019-04-05T09:55:43.364Z,6.5445
2019-04-05T09:55:44.378Z,6.3605
2019-04-05T09:55:48.370Z,6.2012
2019-04-05T09:55:50.370Z,5.6003
2019-04-05T09:55:52.336Z,5.4286
2019-04-05T09:55:54.390Z,5.4209
2019-04-05T09:55:57.349Z,5.5543
2019-04-05T09:55:59.242Z,5.6226
2019-04-05T09:56:01.089Z,5.8159
2019-04-05T09:56:02.366Z,5.9817
2019-04-05T09:56:05.349Z,6.3456
2019-04-05T09:56:08.353Z,6.2667
2019-04-05T09:56:10.360Z,6.8757
2019-04-05T09:56:12.408Z,7.3967
2019-04-05T09:56:14.359Z,7.6556
2019-04-05T09:56:16.379Z,7.6890
2019-04-05T09:56:19.345Z,7.6372
2019-04-05T09:56:21.362Z,7.7331
2019-04-05T09:56:23.353Z,7.6398
2019-04-05T09:56:25.386Z,7.4959
2019-04-05T09:56:28.354Z,7.2382
2019-04-05T09:56:30.134Z,6.8197
2019-04-05T09:56:31.923Z,6.7009
2019-04-05T09:56:34.009Z,6.5333
2019-04-05T09:56:36.229Z,6.4341
2019-04-05T09:56:38.470Z,6.3951
2019-04-05T09:56:41.380Z,6.5413
2019-04-05T09:56:43.467Z,6.6928
2019-04-05T09:56:45.383Z,6.8386
2019-04-05T09:56:47.383Z,6.9045
2019-04-05T09:56:50.379Z,6.8595
2019-04-05T09:56:52.361Z,6.9726
2019-04-05T09:56:56.645Z,7.0542
2019-04-05T09:56:59.382Z,7.2521
2019-04-05T09:57:01.386Z,7.1473
2019-04-05T09:57:03.379Z,7.1029
2019-04-05T09:57:05.385Z,7.1607
2019-04-05T09:57:07.371Z,7.1337
2019-04-05T09:57:10.343Z,7.1058
2019-04-05T09:57:12.358Z,7.4742
2019-04-05T09:57:14.349Z,7.7888
2019-04-05T09:57:16.354Z,8.0482
2019-04-05T09:57:18.412Z,8.0148
2019-04-05T09:57:21.415Z,7.9503
2019-04-05T09:57:23.353Z,7.7295
2019-04-05T09:57:25.367Z,7.6788
2019-04-05T09:57:27.362Z,7.5185
2019-04-05T09:57:30.363Z,7.6252
2019-04-05T09:57:32.354Z,7.5569
2019-04-05T09:57:34.343Z,7.4468
2019-04-05T09:57:36.349Z,7.5890
2019-04-05T09:57:38.377Z,7.7521
2019-04-05T09:57:41.398Z,7.8164
2019-04-05T09:57:43.389Z,7.4914
2019-04-05T09:57:45.350Z,7.3410
2019-04-05T09:57:47.384Z,7.2675
2019-04-05T09:57:49.348Z,7.0540
2019-04-05T09:57:52.366Z,7.0540
2019-04-05T09:57:54.373Z,6.6255
2019-04-05T09:57:55.359Z,6.4953
2019-04-05T09:57:58.390Z,6.4073
2019-04-05T09:58:01.382Z,5.9955
2019-04-05T09:58:03.370Z,5.9664
2019-04-05T09:58:05.353Z,5.8364
2019-04-05T09:58:09.963Z,5.6369
2019-04-05T09:58:12.349Z,5.1617
2019-04-05T09:58:14.381Z,5.3020
2019-04-05T09:58:16.358Z,5.5793
2019-04-05T09:58:18.350Z,5.9567
2019-04-05T09:58:20.374Z,6.4301
2019-04-05T09:58:23.350Z,6.8857
2019-04-05T09:58:25.413Z,7.1163
2019-04-05T09:58:27.349Z,7.1456
2019-04-05T09:58:28.362Z,7.6481
2019-04-05T09:58:32.365Z,7.8411
2019-04-05T09:58:34.349Z,7.9049
2019-04-05T09:58:36.358Z,7.8573
2019-04-05T09:58:38.475Z,7.6498
2019-04-05T09:58:40.351Z,7.3780
2019-04-05T09:58:43.348Z,7.1806
2019-04-05T09:58:45.373Z,7.1088
2019-04-05T09:58:47.349Z,7.0826
2019-04-05T09:58:49.496Z,7.0033
2019-04-05T09:58:51.368Z,6.8921
2019-04-05T09:58:53.349Z,6.9678
2019-04-05T09:58:56.419Z,6.9499
2019-04-05T09:58:58.372Z,6.8874
2019-04-05T09:59:00.378Z,6.9615
2019-04-05T09:59:03.421Z,7.1895
2019-04-05T09:59:05.409Z,7.9740
2019-04-05T09:59:07.372Z,8.7715
2019-04-05T09:59:09.352Z,9.3122
2019-04-05T09:59:11.422Z,9.5678
2019-04-05T09:59:14.452Z,9.4873
2019-04-05T09:59:16.386Z,9.3284
2019-04-05T09:59:18.365Z,9.1575
2019-04-05T09:59:20.389Z,9.0586
2019-04-05T09:59:22.378Z,9.0968
2019-04-05T09:59:25.399Z,8.8906
2019-04-05T09:59:26.397Z,8.4082
2019-04-05T09:59:29.367Z,8.2244
2019-04-05T09:59:31.383Z,7.5626
2019-04-05T09:59:34.358Z,7.2723
2019-04-05T09:59:36.360Z,6.9333
2019-04-05T09:59:38.343Z,6.7975
2019-04-05T09:59:40.359Z,6.5499
2019-04-05T09:59:42.403Z,6.4085
2019-04-05T09:59:45.378Z,6.5151
2019-04-05T09:59:46.368Z,6.6291
2019-04-05T09:59:49.363Z,6.7768
2019-04-05T09:59:51.363Z,6.9400
2019-04-05T09:59:53.362Z,7.0921
2019-04-05T09:59:56.339Z,7.1530
2019-04-05T09:59:58.352Z,6.9816
2019-04-05T10:00:00.360Z,6.7319
2019-04-05T10:00:02.400Z,6.6791
2019-04-05T10:00:05.369Z,7.1773
2019-04-05T10:00:07.360Z,7.4710
2019-04-05T10:00:09.365Z,7.5072
2019-04-05T10:00:11.353Z,7.5930
2019-04-05T10:00:12.411Z,7.5683
2019-04-05T10:00:16.373Z,7.5032
2019-04-05T10:00:18.417Z,6.8884
2019-04-05T10:00:20.395Z,6.9998
2019-04-05T10:00:22.358Z,7.2745
2019-04-05T10:00:24.383Z,7.2995
2019-04-05T10:00:27.410Z,7.2894
2019-04-05T10:00:29.382Z,7.0796
2019-04-05T10:00:31.392Z,7.1244
2019-04-05T10:00:33.363Z,7.3381
2019-04-05T10:00:36.361Z,7.4193
2019-04-05T10:00:38.361Z,7.4517
2019-04-05T10:00:40.365Z,7.6326
2019-04-05T10:00:42.387Z,7.6543
2019-04-05T10:00:44.389Z,7.6122
2019-04-05T10:00:47.535Z,7.7405
2019-04-05T10:00:49.402Z,7.8591
2019-04-05T10:00:51.372Z,8.0160
2019-04-05T10:00:53.439Z,8.0232
2019-04-05T10:00:55.455Z,8.0232
2019-04-05T10:00:57.379Z,7.8497
2019-04-05T10:01:00.382Z,7.8497
2019-04-05T10:01:02.480Z,8.2272
2019-04-05T10:01:04.375Z,8.8180
2019-04-05T10:01:06.358Z,9.1678
2019-04-05T10:01:09.359Z,9.4102
2019-04-05T10:01:10.358Z,9.7848
2019-04-05T10:01:13.387Z,9.9059
2019-04-05T10:01:15.369Z,10.2546
2019-04-05T10:01:18.350Z,10.3068
2019-04-05T10:01:20.368Z,9.9530
2019-04-05T10:01:22.379Z,9.4313
2019-04-05T10:01:24.353Z,8.7486
2019-04-05T10:01:26.359Z,8.1994
2019-04-05T10:01:28.388Z,8.0172
2019-04-05T10:01:31.388Z,7.8453
2019-04-05T10:01:33.335Z,7.5024
2019-04-05T10:01:35.362Z,7.2572
2019-04-05T10:01:37.393Z,7.0177
2019-04-05T10:01:39.379Z,6.9506
2019-04-05T10:01:42.364Z,6.9506
2019-04-05T10:01:44.368Z,6.9550
2019-04-05T10:01:46.667Z,6.9965
2019-04-05T10:01:49.373Z,7.2973
2019-04-05T10:01:51.398Z,7.3630
2019-04-05T10:01:53.365Z,7.3677
2019-04-05T10:01:55.364Z,7.4385
2019-04-05T10:01:57.425Z,7.5495
2019-04-05T10:02:00.343Z,7.5643
2019-04-05T10:02:02.379Z,7.7108
2019-04-05T10:02:04.396Z,8.0997
2019-04-05T10:02:06.408Z,8.0997
2019-04-05T10:02:08.349Z,8.2554
2019-04-05T10:02:11.371Z,8.2213
2019-04-05T10:02:13.412Z,8.2711
2019-04-05T10:02:15.388Z,8.2174
2019-04-05T10:02:16.360Z,8.2299
2019-04-05T10:02:20.395Z,8.1875
2019-04-05T10:02:22.183Z,8.1901
2019-04-05T10:02:22.997Z,8.0804
2019-04-05T10:02:26.401Z,8.0804
2019-04-05T10:02:31.493Z,7.8543
2019-04-05T10:02:34.470Z,7.7111
2019-04-05T10:02:35.383Z,7.4422
2019-04-05T10:02:37.340Z,7.2764
2019-04-05T10:02:39.353Z,7.1742
2019-04-05T10:02:42.439Z,7.0847
2019-04-05T10:02:44.349Z,7.1185
2019-04-05T10:02:45.482Z,7.1185
2019-04-05T10:02:48.359Z,7.2942
2019-04-05T10:02:51.374Z,7.1492
2019-04-05T10:02:53.144Z,7.1326
2019-04-05T10:02:54.930Z,6.9894
2019-04-05T10:02:57.065Z,6.9972
2019-04-05T10:02:59.243Z,6.8800
2019-04-05T10:03:02.398Z,6.7049
2019-04-05T10:03:04.383Z,6.3685
2019-04-05T10:03:06.408Z,6.3163
2019-04-05T10:03:08.383Z,6.2375
2019-04-05T10:03:09.382Z,6.1537
2019-04-05T10:03:13.379Z,6.1949
2019-04-05T10:03:15.353Z,6.7319
2019-04-05T10:03:17.364Z,6.9255
2019-04-05T10:03:19.537Z,6.8026
2019-04-05T10:03:22.400Z,6.5729
2019-04-05T10:03:24.403Z,6.1040
2019-04-05T10:03:26.358Z,5.8871
2019-04-05T10:03:28.353Z,5.7259
2019-04-05T10:03:30.359Z,5.7143
2019-04-05T10:03:33.370Z,6.1672
2019-04-05T10:03:35.398Z,6.6140
2019-04-05T10:03:37.380Z,6.7185
2019-04-05T10:03:39.349Z,7.1785
2019-04-05T10:03:41.363Z,7.7362
2019-04-05T10:03:44.349Z,8.2646
2019-04-05T10:03:46.363Z,8.8568
2019-04-05T10:03:48.349Z,9.2152
2019-04-05T10:03:50.393Z,9.4846
2019-04-05T10:03:53.359Z,9.6193
2019-04-05T10:03:55.349Z,10.0693
2019-04-05T10:03:57.403Z,10.1787
2019-04-05T10:03:59.379Z,10.2274
2019-04-05T10:04:01.381Z,10.1813
2019-04-05T10:04:04.343Z,10.0212
2019-04-05T10:04:06.389Z,10.2566
2019-04-05T10:04:08.350Z,10.2660
2019-04-05T10:04:10.452Z,10.1917
2019-04-05T10:04:12.411Z,10.0223
2019-04-05T10:04:15.402Z,9.9367
2019-04-05T10:04:17.383Z,9.8143
2019-04-05T10:04:18.385Z,9.6833
2019-04-05T10:04:20.368Z,9.7044
2019-04-05T10:04:24.351Z,9.4634
2019-04-05T10:04:26.176Z,8.7491
2019-04-05T10:04:30.902Z,8.6772
2019-04-05T10:04:33.383Z,8.0933
2019-04-05T10:04:35.395Z,7.8056
2019-04-05T10:04:37.336Z,7.3351
2019-04-05T10:04:39.363Z,7.1585
2019-04-05T10:04:41.334Z,7.2144
2019-04-05T10:04:43.359Z,7.2272
2019-04-05T10:04:46.343Z,7.1892
2019-04-05T10:04:48.373Z,7.1287
2019-04-05T10:04:50.348Z,7.0496
2019-04-05T10:04:52.367Z,7.0768
2019-04-05T10:04:54.373Z,7.0436
2019-04-05T10:04:56.394Z,6.9515
2019-04-05T10:04:59.430Z,7.2306
2019-04-05T10:05:01.346Z,7.4235
2019-04-05T10:05:03.427Z,7.2551
2019-04-05T10:05:06.419Z,7.0763
2019-04-05T10:05:08.388Z,6.7130
2019-04-05T10:05:10.373Z,6.6245
2019-04-05T10:05:12.433Z,6.7135
2019-04-05T10:05:14.378Z,6.7763
2019-04-05T10:05:17.372Z,6.7772
2019-04-05T10:05:19.343Z,6.8167
2019-04-05T10:05:21.399Z,6.7084
2019-04-05T10:05:23.642Z,6.8779
2019-04-05T10:05:26.370Z,6.9074
2019-04-05T10:05:28.405Z,6.7827
2019-04-05T10:05:30.442Z,7.0413
2019-04-05T10:05:32.400Z,7.0632
2019-04-05T10:05:34.388Z,7.1013
2019-04-05T10:05:37.373Z,7.2572
2019-04-05T10:05:39.365Z,7.6238
2019-04-05T10:05:41.342Z,7.8550
2019-04-05T10:05:43.359Z,8.1967
2019-04-05T10:05:45.375Z,8.4152
2019-04-05T10:05:48.339Z,8.5985
2019-04-05T10:05:49.351Z,8.6151
2019-04-05T10:05:52.349Z,8.6115
2019-04-05T10:05:54.362Z,8.6814
2019-04-05T10:05:56.343Z,8.7278
2019-04-05T10:05:59.374Z,8.9377
2019-04-05T10:06:01.375Z,9.5460
2019-04-05T10:06:03.438Z,9.5660
2019-04-05T10:06:05.379Z,9.6420
2019-04-05T10:06:08.349Z,9.8078
2019-04-05T10:06:10.383Z,9.9004
2019-04-05T10:06:12.398Z,9.8186
2019-04-05T10:06:14.387Z,9.6045
2019-04-05T10:06:16.379Z,9.4081
2019-04-05T10:06:19.364Z,9.1231
2019-04-05T10:06:21.444Z,8.5833
2019-04-05T10:06:23.383Z,8.1709
2019-04-05T10:06:25.431Z,7.9164
2019-04-05T10:06:27.384Z,7.7876
2019-04-05T10:06:30.398Z,7.8623
2019-04-05T10:06:32.358Z,7.8094
2019-04-05T10:06:34.362Z,7.8874
2019-04-05T10:06:36.350Z,7.8904
2019-04-05T10:06:39.356Z,7.8650
2019-04-05T10:06:41.369Z,8.2554
2019-04-05T10:06:43.372Z,8.2384
2019-04-05T10:06:45.401Z,8.3166
2019-04-05T10:06:47.398Z,8.4544
2019-04-05T10:06:50.352Z,8.5727
2019-04-05T10:06:52.392Z,8.7930
2019-04-05T10:06:54.379Z,8.8400
2019-04-05T10:06:56.383Z,8.7454
2019-04-05T10:06:58.353Z,8.5720
2019-04-05T10:07:00.343Z,8.5258
2019-04-05T10:07:03.378Z,8.6281
2019-04-05T10:07:05.359Z,8.6246
2019-04-05T10:07:07.402Z,8.5388
2019-04-05T10:07:10.342Z,8.3142
2019-04-05T10:07:12.356Z,8.1399
2019-04-05T10:07:14.363Z,8.0516
2019-04-05T10:07:16.404Z,8.1766
2019-04-05T10:07:18.376Z,8.3072
2019-04-05T10:07:21.369Z,8.5769
2019-04-05T10:07:23.338Z,8.7017
2019-04-05T10:07:25.389Z,8.9935
2019-04-05T10:07:27.417Z,9.5173
2019-04-05T10:07:29.404Z,9.7647
2019-04-05T10:07:32.349Z,9.8116
2019-04-05T10:07:34.384Z,9.8417
2019-04-05T10:07:36.359Z,9.5986
2019-04-05T10:07:48.514Z,9.1462
2019-04-05T10:07:54.909Z,8.7070
2019-04-05T10:07:55.205Z,7.6902
2019-04-05T10:07:58.353Z,8.0015
2019-04-05T10:08:00.362Z,7.6974
2019-04-05T10:08:02.393Z,7.7008
2019-04-05T10:08:04.358Z,7.5757
2019-04-05T10:08:06.366Z,7.5001
2019-04-05T10:08:08.378Z,7.2871
2019-04-05T10:08:10.379Z,7.1750
2019-04-05T10:08:12.455Z,7.2726
2019-04-05T10:08:14.403Z,7.3642
2019-04-05T10:08:16.347Z,7.2556
2019-04-05T10:08:17.370Z,7.3199
2019-04-05T10:08:20.338Z,7.3632
2019-04-05T10:08:23.395Z,7.3632
2019-04-05T10:08:25.343Z,7.0720
2019-04-05T10:08:27.429Z,6.8878
2019-04-05T10:08:29.378Z,6.7988
2019-04-05T10:08:31.382Z,6.7423
2019-04-05T10:08:34.348Z,6.7525
2019-04-05T10:08:36.359Z,6.7324
2019-04-05T10:08:38.352Z,6.5682
2019-04-05T10:08:40.405Z,6.6637
2019-04-05T10:08:43.373Z,6.7765
2019-04-05T10:08:45.386Z,6.8994
2019-04-05T10:08:47.379Z,7.0889
2019-04-05T10:08:49.372Z,7.0978
2019-04-05T10:08:51.358Z,6.9445
2019-04-05T10:08:53.373Z,6.6903
2019-04-05T10:08:56.411Z,6.3791
2019-04-05T10:08:58.368Z,5.9856
2019-04-05T10:09:00.380Z,5.9494
2019-04-05T10:09:02.418Z,5.9915
2019-04-05T10:09:04.370Z,5.9428
2019-04-05T10:09:07.379Z,5.8035
2019-04-05T10:09:09.461Z,5.8843
2019-04-05T10:09:11.415Z,5.9581
2019-04-05T10:09:14.388Z,6.1245
2019-04-05T10:09:16.342Z,6.3384
2019-04-05T10:09:18.418Z,6.4447
2019-04-05T10:09:20.364Z,6.4218
2019-04-05T10:09:22.385Z,6.4646
2019-04-05T10:09:25.404Z,6.4095
2019-04-05T10:09:27.399Z,6.6196
2019-04-05T10:09:29.398Z,6.8059
2019-04-05T10:09:31.455Z,6.9630
2019-04-05T10:09:34.345Z,6.9630
2019-04-05T10:09:36.180Z,7.0319
2019-04-05T10:09:37.988Z,7.1504
2019-04-05T10:09:40.379Z,7.2608
2019-04-05T10:09:42.372Z,7.5012
2019-04-05T10:09:45.348Z,7.7857
2019-04-05T10:09:50.154Z,8.0446
2019-04-05T10:09:52.363Z,7.7558
2019-04-05T10:09:54.383Z,7.5285
2019-04-05T10:09:56.352Z,7.4509
2019-04-05T10:09:57.376Z,7.2818
2019-04-05T10:10:00.345Z,7.1628
2019-04-05T10:10:02.355Z,6.9987
2019-04-05T10:10:04.382Z,6.7937
2019-04-05T10:10:07.376Z,6.6510
2019-04-05T10:10:09.394Z,6.4433
2019-04-05T10:10:11.381Z,6.3144
2019-04-05T10:10:13.383Z,6.0453
2019-04-05T10:10:16.363Z,5.7042
2019-04-05T10:10:18.359Z,5.0999
2019-04-05T10:10:20.361Z,4.9934
2019-04-05T10:10:22.389Z,5.1204
2019-04-05T10:10:24.366Z,5.1159
2019-04-05T10:10:27.392Z,5.0683
2019-04-05T10:10:29.384Z,4.7592
2019-04-05T10:10:31.370Z,4.4877
2019-04-05T10:10:32.382Z,4.5981
2019-04-05T10:10:35.348Z,4.6441
2019-04-05T10:10:38.408Z,4.9026
2019-04-05T10:10:40.391Z,5.0400
2019-04-05T10:10:42.374Z,5.0807
2019-04-05T10:10:44.364Z,5.0742
2019-04-05T10:10:46.365Z,5.0803
2019-04-05T10:10:49.400Z,5.0517
2019-04-05T10:10:51.373Z,5.1584
2019-04-05T10:10:53.424Z,5.1707
2019-04-05T10:10:55.392Z,5.4315
2019-04-05T10:10:58.360Z,5.6589
2019-04-05T10:11:00.382Z,6.2643
2019-04-05T10:11:02.339Z,6.5280
2019-04-05T10:11:04.378Z,6.5088
2019-04-05T10:11:06.429Z,6.6214
2019-04-05T10:11:08.352Z,6.5572
2019-04-05T10:11:11.346Z,6.5460
2019-04-05T10:11:12.380Z,6.7946
2019-04-05T10:11:15.343Z,6.8228
2019-04-05T10:11:18.333Z,6.8524
2019-04-05T10:11:20.344Z,6.9114
2019-04-05T10:11:22.368Z,7.1674
2019-04-05T10:11:24.355Z,7.4735
2019-04-05T10:11:26.372Z,7.4914
2019-04-05T10:11:29.356Z,7.3829
2019-04-05T10:11:31.342Z,7.3431
2019-04-05T10:11:33.340Z,7.2454
2019-04-05T10:11:35.368Z,7.1235
2019-04-05T10:11:37.376Z,6.9269
2019-04-05T10:11:40.374Z,6.5913
2019-04-05T10:11:42.394Z,6.2114
2019-04-05T10:11:44.393Z,5.9326
2019-04-05T10:11:46.352Z,5.7929
2019-04-05T10:11:49.379Z,5.6225
2019-04-05T10:11:51.343Z,5.7876
2019-04-05T10:11:53.389Z,5.8770
2019-04-05T10:11:55.401Z,5.8737
2019-04-05T10:11:56.381Z,5.9496
2019-04-05T10:12:00.343Z,5.9688
2019-04-05T10:12:02.362Z,5.8085
2019-04-05T10:12:04.363Z,5.9364
2019-04-05T10:12:06.369Z,6.0104
2019-04-05T10:12:08.365Z,6.0689
2019-04-05T10:12:11.343Z,6.0919
2019-04-05T10:12:13.389Z,6.2017
2019-04-05T10:12:15.369Z,6.4508
2019-04-05T10:12:17.339Z,6.7584
2019-04-05T10:12:20.378Z,6.8562
2019-04-05T10:12:22.373Z,6.8542
2019-04-05T10:12:24.353Z,6.9361
2019-04-05T10:12:26.344Z,6.9331
2019-04-05T10:12:28.352Z,6.8744
2019-04-05T10:12:31.383Z,6.8243
2019-04-05T10:12:33.371Z,7.0060
2019-04-05T10:12:35.354Z,7.2661
2019-04-05T10:12:37.381Z,7.7011
2019-04-05T10:12:40.357Z,7.8593
2019-04-05T10:12:42.163Z,7.7269
2019-04-05T10:12:44.391Z,7.9468
2019-04-05T10:12:45.392Z,8.1378
2019-04-05T10:12:48.377Z,8.2209
2019-04-05T10:12:51.348Z,7.9544
2019-04-05T10:12:53.343Z,7.4892
2019-04-05T10:12:55.391Z,7.0864
2019-04-05T10:12:57.348Z,6.6532
2019-04-05T10:12:58.363Z,6.2254
2019-04-05T10:13:02.383Z,6.0328
2019-04-05T10:13:04.362Z,5.7826
2019-04-05T10:13:06.343Z,5.6297
2019-04-05T10:13:09.658Z,5.5734
2019-04-05T10:13:12.387Z,5.1809
2019-04-05T10:13:14.373Z,5.1257
2019-04-05T10:13:16.354Z,5.0981
2019-04-05T10:13:18.418Z,4.9394
2019-04-05T10:13:20.349Z,4.7106
2019-04-05T10:13:22.418Z,4.6269
2019-04-05T10:13:24.369Z,4.7483
2019-04-05T10:13:26.343Z,4.7000
2019-04-05T10:13:28.372Z,4.4986
2019-04-05T10:13:30.399Z,4.3006
2019-04-05T10:13:33.365Z,4.1120
2019-04-05T10:13:35.351Z,4.2262
2019-04-05T10:13:37.403Z,4.5675
2019-04-05T10:13:39.359Z,4.8207
2019-04-05T10:13:42.379Z,5.0499
2019-04-05T10:13:44.383Z,5.1762
2019-04-05T10:13:45.368Z,5.3583
2019-04-05T10:13:48.359Z,5.3952
2019-04-05T10:13:50.362Z,5.3788
2019-04-05T10:13:53.364Z,5.3935
2019-04-05T10:13:55.349Z,5.6472
2019-04-05T10:13:57.398Z,5.6425
2019-04-05T10:13:59.381Z,5.4357
2019-04-05T10:14:01.361Z,5.1574
2019-04-05T10:14:04.364Z,5.1217
2019-04-05T10:14:06.369Z,5.2399
2019-04-05T10:14:08.368Z,5.4405
2019-04-05T10:14:10.351Z,5.7625
2019-04-05T10:14:13.369Z,5.9593
2019-04-05T10:14:15.392Z,6.0086
2019-04-05T10:14:17.359Z,5.8177
2019-04-05T10:14:19.414Z,5.6756
2019-04-05T10:14:21.349Z,5.7852
2019-04-05T10:14:24.367Z,5.8756
2019-04-05T10:14:26.358Z,6.0306
2019-04-05T10:14:27.441Z,6.0818
2019-04-05T10:14:30.352Z,6.1437
2019-04-05T10:14:33.344Z,6.5482
2019-04-05T10:14:35.144Z,6.5197
2019-04-05T10:14:36.949Z,6.3353
2019-04-05T10:14:39.008Z,6.2866
2019-04-05T10:14:41.321Z,6.3082
2019-04-05T10:14:44.388Z,6.1381
2019-04-05T10:14:46.375Z,5.5993
2019-04-05T10:14:48.362Z,5.5397
2019-04-05T10:14:50.338Z,5.3874
2019-04-05T10:14:52.402Z,5.2433
2019-04-05T10:14:55.361Z,5.0028
2019-04-05T10:14:57.355Z,4.5272
2019-04-05T10:14:59.348Z,4.4576
2019-04-05T10:15:00.363Z,4.4780
2019-04-05T10:15:03.368Z,4.5278
2019-04-05T10:15:06.354Z,4.7461
2019-04-05T10:15:07.384Z,4.9259
2019-04-05T10:15:10.373Z,4.9879
2019-04-05T10:15:12.342Z,4.9992
2019-04-05T10:15:15.366Z,4.9660
2019-04-05T10:15:17.359Z,5.1605
2019-04-05T10:15:21.713Z,5.5423
2019-04-05T10:15:24.389Z,5.8337
2019-04-05T10:15:26.372Z,5.8437
2019-04-05T10:15:28.361Z,5.7794
2019-04-05T10:15:30.402Z,5.7216
2019-04-05T10:15:32.349Z,5.6273
2019-04-05T10:15:34.368Z,5.6096
2019-04-05T10:15:37.386Z,5.7291
2019-04-05T10:15:39.373Z,5.7291
2019-04-05T10:15:41.374Z,5.4649
2019-04-05T10:15:43.380Z,5.2573
2019-04-05T10:15:46.344Z,5.0278
2019-04-05T10:15:48.421Z,4.8209
2019-04-05T10:15:50.370Z,4.8766
2019-04-05T10:15:52.352Z,4.7907
2019-04-05T10:15:54.383Z,4.6585
2019-04-05T10:15:57.366Z,4.6079
2019-04-05T10:15:59.379Z,5.0865
2019-04-05T10:16:01.343Z,5.4292
2019-04-05T10:16:03.375Z,5.6619
2019-04-05T10:16:05.507Z,5.8901
2019-04-05T10:16:08.446Z,6.5892
2019-04-05T10:16:10.408Z,6.8493
2019-04-05T10:16:12.395Z,6.8639
2019-04-05T10:16:14.567Z,6.8861
2019-04-05T10:16:16.581Z,6.9885
2019-04-05T10:16:18.620Z,6.9772
2019-04-05T10:16:21.750Z,6.8149
2019-04-05T10:16:24.463Z,6.4062
2019-04-05T10:16:26.528Z,6.0590
2019-04-05T10:16:28.403Z,5.8658
2019-04-05T10:16:30.353Z,5.5708
2019-04-05T10:16:32.391Z,5.4898
2019-04-05T10:16:34.369Z,5.2700
2019-04-05T10:16:36.389Z,5.3335
2019-04-05T10:16:39.427Z,5.5061
2019-04-05T10:16:41.357Z,5.7752
2019-04-05T10:16:42.340Z,6.0713
2019-04-05T10:16:45.384Z,6.3004
2019-04-05T10:16:48.349Z,6.5522
2019-04-05T10:16:50.133Z,6.5191
2019-04-05T10:16:51.999Z,6.5294
2019-04-05T10:16:53.999Z,6.5654
2019-04-05T10:16:56.201Z,6.5891
2019-04-05T10:16:58.423Z,6.4639
2019-04-05T10:17:01.349Z,6.3462
2019-04-05T10:17:03.363Z,6.2819
2019-04-05T10:17:05.390Z,6.0663
2019-04-05T10:17:07.393Z,5.9526
2019-04-05T10:17:10.369Z,5.9532
2019-04-05T10:17:11.368Z,6.2937
2019-04-05T10:17:14.363Z,6.4655
2019-04-05T10:17:16.350Z,6.6158
2019-04-05T10:17:18.395Z,6.5774
2019-04-05T10:17:21.422Z,6.4016
2019-04-05T10:17:23.354Z,6.1555
2019-04-05T10:17:25.348Z,6.0516
2019-04-05T10:17:27.383Z,6.1522
2019-04-05T10:17:30.393Z,6.5336
2019-04-05T10:17:32.476Z,6.9147
2019-04-05T10:17:34.445Z,7.3403
2019-04-05T10:17:36.548Z,7.5488
2019-04-05T10:17:38.510Z,7.6501
2019-04-05T10:17:41.348Z,7.5911
2019-04-05T10:17:43.389Z,7.1762
2019-04-05T10:17:45.399Z,6.8497
2019-04-05T10:17:47.395Z,6.5282
2019-04-05T10:17:49.343Z,6.0816
2019-04-05T10:17:52.493Z,5.7729
2019-04-05T10:17:54.352Z,5.5322
2019-04-05T10:17:56.369Z,5.3872
2019-04-05T10:17:58.356Z,5.5814
2019-04-05T10:18:00.381Z,5.5942
2019-04-05T10:18:03.358Z,5.6474
2019-04-05T10:18:05.490Z,5.6428
2019-04-05T10:18:07.343Z,5.8480
2019-04-05T10:18:08.365Z,6.0724
2019-04-05T10:18:12.418Z,6.1385
2019-04-05T10:18:14.355Z,5.9251
2019-04-05T10:18:16.392Z,5.6927
2019-04-05T10:18:18.414Z,5.5718
2019-04-05T10:18:20.370Z,5.6352
2019-04-05T10:18:23.348Z,5.6139
2019-04-05T10:18:25.338Z,5.3523
2019-04-05T10:18:27.381Z,5.1272
2019-04-05T10:18:29.665Z,5.0310
2019-04-05T10:18:32.339Z,5.0008
2019-04-05T10:18:34.398Z,4.8924
2019-04-05T10:18:36.368Z,4.7863
2019-04-05T10:18:38.349Z,4.6947
2019-04-05T10:18:40.399Z,4.8523
2019-04-05T10:18:42.379Z,4.9748
2019-04-05T10:18:45.332Z,5.1662
2019-04-05T10:18:47.372Z,5.1264
2019-04-05T10:18:51.412Z,4.9406
2019-04-05T10:18:54.347Z,4.7126
2019-04-05T10:18:56.349Z,4.4779
2019-04-05T10:18:58.373Z,4.2741
2019-04-05T10:19:00.352Z,4.2435
2019-04-05T10:19:02.359Z,4.2542
2019-04-05T10:19:04.398Z,4.2047
2019-04-05T10:19:07.368Z,4.2141
2019-04-05T10:19:09.403Z,4.4255
2019-04-05T10:19:11.399Z,4.6891
2019-04-05T10:19:13.364Z,4.8430
2019-04-05T10:19:16.362Z,4.9091
2019-04-05T10:19:18.402Z,5.0542
2019-04-05T10:19:20.401Z,5.4387
2019-04-05T10:19:22.379Z,5.7322
2019-04-05T10:19:25.472Z,5.9013
2019-04-05T10:19:27.278Z,5.7745
2019-04-05T10:19:29.068Z,5.4985
2019-04-05T10:19:31.359Z,5.2155
2019-04-05T10:19:33.384Z,5.0025
2019-04-05T10:19:48.853Z,5.0699
2019-04-05T10:19:49.694Z,5.5379
2019-04-05T10:19:50.616Z,6.2794